SAS649 DTTA-EKCH
Flight info
| Callsign | SAS649 |
|---|---|
| Flight time | 2h 40m |
| Altitude | 40000 |
| Route | KEMIR2A KEMIR UV286 TBK UM858 DOPEL DCT KOLUS DCT XOPTA DCT EVKIV DCT IVKAL T102 NINUR T101 ANDEC/N0482F410 T101 BETOS/N0480F400 M726 ROSOK Q296 MONAK |
| Aircraft | A359/H-SDE2E3GHIJ3J4J5LM1ORWXY/LB1D1 |
Departure
| Time | 2026-04-26 12:48 |
|---|---|
| Airport | Tunis Carthage International Airport (DTTA) |
Arrival
| Time | 2026-04-26 15:28 |
|---|---|
| Airport | Copenhagen Kastrup Airport (EKCH) |
| Time | Latitude | Longitude | Altitude | Speed | Heading |
|---|---|---|---|---|---|
| 2026-04-26 12:21 | 36.84691 | 10.21902 | 37 ft | 0 kts | 196° |
| 2026-04-26 12:38 | 36.84704 | 10.21907 | 35 ft | 3 kts | 187° |
| 2026-04-26 12:39 | 36.84725 | 10.21905 | 35 ft | 3 kts | 144° |
| 2026-04-26 12:39 | 36.84738 | 10.21888 | 32 ft | 0 kts | 108° |
| 2026-04-26 12:43 | 36.84735 | 10.21900 | 32 ft | 4 kts | 103° |
| 2026-04-26 12:43 | 36.84729 | 10.21961 | 36 ft | 11 kts | 91° |
| 2026-04-26 12:43 | 36.84716 | 10.22065 | 36 ft | 12 kts | 110° |
| 2026-04-26 12:44 | 36.84643 | 10.22101 | 36 ft | 15 kts | 185° |
| 2026-04-26 12:44 | 36.84537 | 10.22093 | 36 ft | 15 kts | 157° |
| 2026-04-26 12:44 | 36.84489 | 10.22203 | 36 ft | 15 kts | 111° |
| 2026-04-26 12:44 | 36.84417 | 10.22234 | 36 ft | 12 kts | 189° |
| 2026-04-26 12:45 | 36.84314 | 10.22208 | 37 ft | 16 kts | 192° |
| 2026-04-26 12:45 | 36.84196 | 10.22175 | 37 ft | 18 kts | 192° |
| 2026-04-26 12:45 | 36.84065 | 10.22140 | 37 ft | 20 kts | 192° |
| 2026-04-26 12:45 | 36.83925 | 10.22105 | 37 ft | 17 kts | 182° |
| 2026-04-26 12:46 | 36.83873 | 10.22170 | 37 ft | 11 kts | 98° |
| 2026-04-26 12:46 | 36.83902 | 10.22291 | 37 ft | 15 kts | 54° |
| 2026-04-26 12:46 | 36.83966 | 10.22390 | 37 ft | 14 kts | 24° |
| 2026-04-26 12:46 | 36.84025 | 10.22407 | 37 ft | 0 kts | 13° |
| 2026-04-26 12:47 | 36.84185 | 10.22450 | 37 ft | 58 kts | 12° |
| 2026-04-26 12:47 | 36.84811 | 10.22620 | 39 ft | 123 kts | 13° |
| 2026-04-26 12:47 | 36.85813 | 10.22894 | 164 ft | 164 kts | 15° |
| 2026-04-26 12:48 | 36.86955 | 10.23164 | 812 ft | 169 kts | 11° |
| 2026-04-26 12:48 | 36.88129 | 10.23455 | 1522 ft | 171 kts | 13° |
| 2026-04-26 12:48 | 36.89271 | 10.23798 | 2186 ft | 170 kts | 16° |
| 2026-04-26 12:48 | 36.90410 | 10.24218 | 2815 ft | 169 kts | 18° |
| 2026-04-26 12:49 | 36.91525 | 10.24412 | 3496 ft | 158 kts | 350° |
| 2026-04-26 12:49 | 36.92557 | 10.23957 | 3940 ft | 159 kts | 323° |
| 2026-04-26 12:49 | 36.93224 | 10.22868 | 4376 ft | 161 kts | 289° |
| 2026-04-26 12:49 | 36.93398 | 10.21449 | 4754 ft | 174 kts | 270° |
| 2026-04-26 12:50 | 36.93378 | 10.19874 | 5058 ft | 193 kts | 269° |
| 2026-04-26 12:50 | 36.93362 | 10.18086 | 5372 ft | 214 kts | 269° |
| 2026-04-26 12:50 | 36.93317 | 10.16163 | 5809 ft | 231 kts | 268° |
| 2026-04-26 12:50 | 36.93042 | 10.14123 | 6388 ft | 245 kts | 255° |
| 2026-04-26 12:51 | 36.92468 | 10.12049 | 6939 ft | 259 kts | 249° |
| 2026-04-26 12:51 | 36.91754 | 10.09950 | 7606 ft | 268 kts | 248° |
| 2026-04-26 12:51 | 36.91092 | 10.07753 | 8470 ft | 269 kts | 253° |
| 2026-04-26 12:51 | 36.90549 | 10.05526 | 9487 ft | 266 kts | 256° |
| 2026-04-26 12:52 | 36.90090 | 10.03270 | 10337 ft | 270 kts | 258° |
| 2026-04-26 12:52 | 36.89629 | 10.00990 | 11189 ft | 271 kts | 257° |
| 2026-04-26 12:52 | 36.89114 | 9.98687 | 11894 ft | 279 kts | 255° |
| 2026-04-26 12:52 | 36.88491 | 9.96383 | 12650 ft | 285 kts | 253° |
| 2026-04-26 12:53 | 36.87771 | 9.94050 | 13428 ft | 290 kts | 250° |
| 2026-04-26 12:53 | 36.87066 | 9.91658 | 14094 ft | 297 kts | 254° |
| 2026-04-26 12:53 | 36.86462 | 9.89152 | 14578 ft | 307 kts | 257° |
| 2026-04-26 12:53 | 36.85888 | 9.86555 | 15187 ft | 314 kts | 256° |
| 2026-04-26 12:54 | 36.85278 | 9.83931 | 15727 ft | 322 kts | 256° |
| 2026-04-26 12:54 | 36.84634 | 9.81210 | 16236 ft | 331 kts | 257° |
| 2026-04-26 12:54 | 36.84281 | 9.78338 | 16723 ft | 338 kts | 269° |
| 2026-04-26 12:54 | 36.84321 | 9.75393 | 17422 ft | 339 kts | 272° |
| 2026-04-26 12:55 | 36.84375 | 9.72429 | 18143 ft | 342 kts | 271° |
| 2026-04-26 12:55 | 36.84388 | 9.69431 | 18613 ft | 352 kts | 272° |
| 2026-04-26 12:55 | 36.84746 | 9.66383 | 18879 ft | 365 kts | 285° |
| 2026-04-26 12:55 | 36.85792 | 9.63444 | 19249 ft | 379 kts | 302° |
| 2026-04-26 12:56 | 36.87618 | 9.61014 | 19726 ft | 391 kts | 321° |
| 2026-04-26 12:56 | 36.89985 | 9.59323 | 20272 ft | 399 kts | 332° |
| 2026-04-26 12:56 | 36.92592 | 9.58007 | 20856 ft | 406 kts | 337° |
| 2026-04-26 12:56 | 36.95309 | 9.56883 | 21445 ft | 411 kts | 339° |
| 2026-04-26 12:57 | 36.98059 | 9.55827 | 22031 ft | 416 kts | 339° |
| 2026-04-26 12:57 | 37.00811 | 9.54768 | 22615 ft | 420 kts | 339° |
| 2026-04-26 12:57 | 37.03609 | 9.53657 | 23232 ft | 423 kts | 339° |
| 2026-04-26 12:58 | 37.09258 | 9.51307 | 24291 ft | 431 kts | 338° |
| 2026-04-26 12:58 | 37.12108 | 9.50088 | 24793 ft | 434 kts | 338° |
| 2026-04-26 12:58 | 37.14982 | 9.48848 | 25296 ft | 438 kts | 337° |
| 2026-04-26 12:58 | 37.17871 | 9.47599 | 25785 ft | 441 kts | 337° |
| 2026-04-26 12:59 | 37.20782 | 9.46340 | 26277 ft | 444 kts | 338° |
| 2026-04-26 12:59 | 37.23717 | 9.45070 | 26748 ft | 448 kts | 338° |
| 2026-04-26 12:59 | 37.26676 | 9.43790 | 27223 ft | 451 kts | 338° |
| 2026-04-26 12:59 | 37.29624 | 9.42517 | 27723 ft | 454 kts | 338° |
| 2026-04-26 13:00 | 37.32620 | 9.41222 | 28197 ft | 458 kts | 338° |
| 2026-04-26 13:00 | 37.35643 | 9.39914 | 28671 ft | 461 kts | 337° |
| 2026-04-26 13:00 | 37.38696 | 9.38593 | 29114 ft | 465 kts | 337° |
| 2026-04-26 13:00 | 37.41757 | 9.37266 | 29555 ft | 468 kts | 337° |
| 2026-04-26 13:01 | 37.44837 | 9.35931 | 30130 ft | 468 kts | 337° |
| 2026-04-26 13:01 | 37.47921 | 9.34594 | 30633 ft | 467 kts | 337° |
| 2026-04-26 13:01 | 37.50994 | 9.33260 | 31116 ft | 467 kts | 337° |
| 2026-04-26 13:01 | 37.54069 | 9.31924 | 31594 ft | 466 kts | 337° |
| 2026-04-26 13:02 | 37.57102 | 9.30604 | 32023 ft | 466 kts | 337° |
| 2026-04-26 13:02 | 37.60170 | 9.29267 | 32486 ft | 466 kts | 338° |
| 2026-04-26 13:02 | 37.63236 | 9.27930 | 32929 ft | 466 kts | 338° |
| 2026-04-26 13:02 | 37.66297 | 9.26594 | 33339 ft | 465 kts | 338° |
| 2026-04-26 13:03 | 37.69365 | 9.25254 | 33661 ft | 467 kts | 338° |
| 2026-04-26 13:03 | 37.72450 | 9.23903 | 33936 ft | 470 kts | 338° |
| 2026-04-26 13:03 | 37.75548 | 9.22547 | 34200 ft | 472 kts | 338° |
| 2026-04-26 13:03 | 37.78666 | 9.21180 | 34444 ft | 474 kts | 338° |
| 2026-04-26 13:04 | 37.81790 | 9.19810 | 34682 ft | 476 kts | 338° |
| 2026-04-26 13:04 | 37.84925 | 9.18435 | 34971 ft | 476 kts | 338° |
| 2026-04-26 13:04 | 37.88051 | 9.17063 | 35397 ft | 473 kts | 338° |
| 2026-04-26 13:04 | 37.91151 | 9.15702 | 35814 ft | 470 kts | 338° |
| 2026-04-26 13:05 | 37.94230 | 9.14350 | 36240 ft | 467 kts | 338° |
| 2026-04-26 13:05 | 37.97285 | 9.13006 | 36617 ft | 464 kts | 338° |
| 2026-04-26 13:05 | 38.00334 | 9.11662 | 36976 ft | 462 kts | 338° |
| 2026-04-26 13:05 | 38.03388 | 9.10398 | 37339 ft | 462 kts | 342° |
| 2026-04-26 13:06 | 38.06506 | 9.09592 | 37621 ft | 464 kts | 350° |
| 2026-04-26 13:06 | 38.09741 | 9.09383 | 37902 ft | 467 kts | 358° |
| 2026-04-26 13:06 | 38.12994 | 9.09567 | 38160 ft | 467 kts | 1° |
| 2026-04-26 13:06 | 38.16233 | 9.09916 | 38444 ft | 467 kts | 2° |
| 2026-04-26 13:07 | 38.19460 | 9.10347 | 38733 ft | 466 kts | 3° |
| 2026-04-26 13:07 | 38.22672 | 9.10804 | 38977 ft | 464 kts | 3° |
| 2026-04-26 13:07 | 38.25885 | 9.11261 | 39197 ft | 463 kts | 3° |
| 2026-04-26 13:07 | 38.29090 | 9.11705 | 39388 ft | 462 kts | 2° |
| 2026-04-26 13:08 | 38.32285 | 9.12133 | 39585 ft | 461 kts | 3° |
| 2026-04-26 13:08 | 38.35472 | 9.12552 | 39776 ft | 460 kts | 3° |
| 2026-04-26 13:08 | 38.38612 | 9.12960 | 39954 ft | 459 kts | 2° |
| 2026-04-26 13:08 | 38.41786 | 9.13369 | 40122 ft | 459 kts | 2° |
| 2026-04-26 13:09 | 38.48182 | 9.14191 | 40165 ft | 465 kts | 2° |
| 2026-04-26 13:09 | 38.54672 | 9.15028 | 40168 ft | 472 kts | 3° |
| 2026-04-26 13:10 | 38.61250 | 9.15881 | 40166 ft | 478 kts | 3° |
| 2026-04-26 13:10 | 38.67920 | 9.16750 | 40164 ft | 484 kts | 3° |
| 2026-04-26 13:11 | 38.74632 | 9.17626 | 40166 ft | 490 kts | 3° |
| 2026-04-26 13:11 | 38.81460 | 9.18518 | 40165 ft | 495 kts | 3° |
| 2026-04-26 13:12 | 38.88337 | 9.19419 | 40169 ft | 497 kts | 3° |
| 2026-04-26 13:12 | 38.95218 | 9.20323 | 40164 ft | 497 kts | 3° |
| 2026-04-26 13:13 | 39.02101 | 9.21228 | 40165 ft | 497 kts | 3° |
| 2026-04-26 13:13 | 39.08931 | 9.22128 | 40158 ft | 497 kts | 3° |
| 2026-04-26 13:14 | 39.15800 | 9.23034 | 40157 ft | 497 kts | 3° |
| 2026-04-26 13:14 | 39.22675 | 9.23942 | 40160 ft | 496 kts | 4° |
| 2026-04-26 13:15 | 39.29555 | 9.24854 | 40157 ft | 496 kts | 4° |
| 2026-04-26 13:15 | 39.35257 | 9.25610 | 40157 ft | 496 kts | 4° |
| 2026-04-26 13:16 | 39.43293 | 9.26678 | 40150 ft | 496 kts | 4° |
| 2026-04-26 13:16 | 39.50128 | 9.27589 | 40150 ft | 496 kts | 4° |
| 2026-04-26 13:17 | 39.60432 | 9.28965 | 40144 ft | 496 kts | 4° |
| 2026-04-26 13:18 | 39.70724 | 9.30343 | 40148 ft | 496 kts | 4° |
| 2026-04-26 13:19 | 39.81026 | 9.31727 | 40146 ft | 496 kts | 4° |
| 2026-04-26 13:19 | 39.87844 | 9.32646 | 40149 ft | 496 kts | 4° |
| 2026-04-26 13:20 | 39.94712 | 9.33573 | 40141 ft | 495 kts | 4° |
| 2026-04-26 13:20 | 40.01569 | 9.34500 | 40143 ft | 495 kts | 4° |
| 2026-04-26 13:21 | 40.08421 | 9.35429 | 40137 ft | 495 kts | 4° |
| 2026-04-26 13:21 | 40.15284 | 9.36360 | 40138 ft | 495 kts | 4° |
| 2026-04-26 13:22 | 40.22089 | 9.37286 | 40139 ft | 495 kts | 4° |
| 2026-04-26 13:22 | 40.28949 | 9.38221 | 40135 ft | 495 kts | 4° |
| 2026-04-26 13:23 | 40.35800 | 9.39158 | 40139 ft | 495 kts | 4° |
| 2026-04-26 13:23 | 40.42660 | 9.40097 | 40140 ft | 495 kts | 4° |
| 2026-04-26 13:24 | 40.49473 | 9.41031 | 40141 ft | 495 kts | 4° |
| 2026-04-26 13:24 | 40.56334 | 9.41975 | 40140 ft | 495 kts | 4° |
| 2026-04-26 13:25 | 40.63178 | 9.42917 | 40140 ft | 494 kts | 4° |
| 2026-04-26 13:25 | 40.70014 | 9.43861 | 40139 ft | 494 kts | 4° |
| 2026-04-26 13:26 | 40.76853 | 9.44969 | 40146 ft | 495 kts | 7° |
| 2026-04-26 13:26 | 40.82509 | 9.46245 | 40126 ft | 495 kts | 8° |
| 2026-04-26 13:27 | 40.90409 | 9.48080 | 40130 ft | 495 kts | 8° |
| 2026-04-26 13:27 | 40.96061 | 9.49337 | 40143 ft | 495 kts | 7° |
| 2026-04-26 13:28 | 41.02856 | 9.50814 | 40130 ft | 495 kts | 7° |
| 2026-04-26 13:28 | 41.09651 | 9.52283 | 40137 ft | 495 kts | 7° |
| 2026-04-26 13:29 | 41.16440 | 9.53756 | 40144 ft | 494 kts | 7° |
| 2026-04-26 13:29 | 41.23240 | 9.55236 | 40149 ft | 494 kts | 7° |
| 2026-04-26 13:30 | 41.30033 | 9.56720 | 40153 ft | 494 kts | 7° |
| 2026-04-26 13:30 | 41.36830 | 9.58207 | 40154 ft | 494 kts | 7° |
| 2026-04-26 13:31 | 41.43619 | 9.59696 | 40154 ft | 494 kts | 7° |
| 2026-04-26 13:31 | 41.50367 | 9.61179 | 40154 ft | 495 kts | 7° |
| 2026-04-26 13:32 | 41.57167 | 9.62676 | 40154 ft | 495 kts | 7° |
| 2026-04-26 13:32 | 41.63963 | 9.64176 | 40155 ft | 495 kts | 7° |
| 2026-04-26 13:33 | 41.70768 | 9.65681 | 40153 ft | 495 kts | 7° |
| 2026-04-26 13:33 | 41.77560 | 9.67186 | 40154 ft | 495 kts | 7° |
| 2026-04-26 13:34 | 41.84355 | 9.68695 | 40158 ft | 495 kts | 7° |
| 2026-04-26 13:34 | 41.91152 | 9.70208 | 40157 ft | 495 kts | 7° |
| 2026-04-26 13:35 | 41.97905 | 9.71714 | 40157 ft | 495 kts | 7° |
| 2026-04-26 13:35 | 42.04704 | 9.73234 | 40158 ft | 495 kts | 7° |
| 2026-04-26 13:36 | 42.11499 | 9.74756 | 40152 ft | 495 kts | 7° |
| 2026-04-26 13:36 | 42.18310 | 9.76285 | 40159 ft | 495 kts | 7° |
| 2026-04-26 13:37 | 42.25107 | 9.77815 | 40150 ft | 496 kts | 7° |
| 2026-04-26 13:37 | 42.31917 | 9.79350 | 40156 ft | 496 kts | 7° |
| 2026-04-26 13:38 | 42.38714 | 9.80886 | 40155 ft | 496 kts | 7° |
| 2026-04-26 13:38 | 42.45525 | 9.82429 | 40158 ft | 496 kts | 7° |
| 2026-04-26 13:39 | 42.52283 | 9.83963 | 40154 ft | 495 kts | 7° |
| 2026-04-26 13:39 | 42.59090 | 9.85511 | 40158 ft | 495 kts | 7° |
| 2026-04-26 13:40 | 42.65881 | 9.87061 | 40161 ft | 495 kts | 7° |
| 2026-04-26 13:40 | 42.72685 | 9.88652 | 40162 ft | 496 kts | 7° |
| 2026-04-26 13:41 | 42.79496 | 9.90266 | 40163 ft | 496 kts | 7° |
| 2026-04-26 13:41 | 42.86291 | 9.91874 | 40161 ft | 495 kts | 7° |
| 2026-04-26 13:42 | 42.93039 | 9.93471 | 40162 ft | 495 kts | 7° |
| 2026-04-26 13:42 | 42.99827 | 9.95079 | 40183 ft | 495 kts | 7° |
| 2026-04-26 13:43 | 43.06637 | 9.96696 | 40171 ft | 495 kts | 7° |
| 2026-04-26 13:43 | 43.13424 | 9.98311 | 40162 ft | 495 kts | 7° |
| 2026-04-26 13:44 | 43.20220 | 9.99933 | 40172 ft | 495 kts | 7° |
| 2026-04-26 13:44 | 43.26969 | 10.01547 | 40162 ft | 495 kts | 7° |
| 2026-04-26 13:45 | 43.33754 | 10.03173 | 40163 ft | 495 kts | 7° |
| 2026-04-26 13:45 | 43.40547 | 10.04804 | 40164 ft | 495 kts | 7° |
| 2026-04-26 13:46 | 43.47350 | 10.06442 | 40165 ft | 495 kts | 7° |
| 2026-04-26 13:46 | 43.54143 | 10.08081 | 40165 ft | 495 kts | 7° |
| 2026-04-26 13:47 | 43.60898 | 10.09715 | 40169 ft | 495 kts | 7° |
| 2026-04-26 13:47 | 43.67693 | 10.11362 | 40162 ft | 495 kts | 7° |
| 2026-04-26 13:48 | 43.74490 | 10.13014 | 40156 ft | 495 kts | 7° |
| 2026-04-26 13:48 | 43.81270 | 10.14665 | 40155 ft | 495 kts | 7° |
| 2026-04-26 13:49 | 43.88060 | 10.16322 | 40155 ft | 495 kts | 7° |
| 2026-04-26 13:49 | 43.94842 | 10.17981 | 40156 ft | 495 kts | 7° |
| 2026-04-26 13:50 | 44.01615 | 10.19642 | 40155 ft | 494 kts | 7° |
| 2026-04-26 13:50 | 44.08395 | 10.21308 | 40155 ft | 495 kts | 7° |
| 2026-04-26 13:51 | 44.15179 | 10.22978 | 40150 ft | 495 kts | 7° |
| 2026-04-26 13:51 | 44.21968 | 10.24654 | 40144 ft | 495 kts | 8° |
| 2026-04-26 13:52 | 44.28747 | 10.26333 | 40135 ft | 494 kts | 7° |
| 2026-04-26 13:52 | 44.35531 | 10.28011 | 40119 ft | 494 kts | 7° |
| 2026-04-26 13:53 | 44.42268 | 10.29689 | 40107 ft | 494 kts | 8° |
| 2026-04-26 13:53 | 44.49042 | 10.31381 | 40109 ft | 495 kts | 8° |
| 2026-04-26 13:54 | 44.55807 | 10.33266 | 40104 ft | 495 kts | 10° |
| 2026-04-26 13:54 | 44.62536 | 10.35376 | 40094 ft | 495 kts | 10° |
| 2026-04-26 13:55 | 44.71495 | 10.38161 | 40089 ft | 495 kts | 10° |
| 2026-04-26 13:56 | 44.82691 | 10.41574 | 40084 ft | 495 kts | 10° |
| 2026-04-26 13:56 | 44.89422 | 10.43625 | 40078 ft | 495 kts | 10° |
| 2026-04-26 13:57 | 44.96157 | 10.45684 | 40077 ft | 494 kts | 10° |
| 2026-04-26 13:57 | 45.02847 | 10.47735 | 40076 ft | 494 kts | 10° |
| 2026-04-26 13:58 | 45.09572 | 10.49801 | 40082 ft | 494 kts | 10° |
| 2026-04-26 13:58 | 45.16305 | 10.51876 | 40077 ft | 495 kts | 10° |
| 2026-04-26 13:59 | 45.23039 | 10.53957 | 40076 ft | 495 kts | 10° |
| 2026-04-26 13:59 | 45.29761 | 10.56038 | 40083 ft | 495 kts | 10° |
| 2026-04-26 14:00 | 45.43169 | 10.60205 | 40080 ft | 494 kts | 10° |
| 2026-04-26 14:01 | 45.49883 | 10.62299 | 40082 ft | 494 kts | 10° |
| 2026-04-26 14:01 | 45.56600 | 10.64399 | 40082 ft | 494 kts | 10° |
| 2026-04-26 14:02 | 45.63276 | 10.66491 | 40096 ft | 494 kts | 10° |
| 2026-04-26 14:02 | 45.69992 | 10.68601 | 40099 ft | 494 kts | 10° |
| 2026-04-26 14:03 | 45.76708 | 10.70715 | 40107 ft | 494 kts | 10° |
| 2026-04-26 14:03 | 45.83415 | 10.72832 | 40113 ft | 494 kts | 10° |
| 2026-04-26 14:04 | 45.90135 | 10.74960 | 40120 ft | 494 kts | 10° |
| 2026-04-26 14:04 | 45.96807 | 10.77079 | 40116 ft | 493 kts | 10° |
| 2026-04-26 14:05 | 46.03526 | 10.79217 | 40127 ft | 494 kts | 10° |
| 2026-04-26 14:05 | 46.10238 | 10.81359 | 40157 ft | 494 kts | 10° |
| 2026-04-26 14:06 | 46.16946 | 10.83501 | 40178 ft | 494 kts | 10° |
| 2026-04-26 14:06 | 46.23656 | 10.85645 | 40194 ft | 494 kts | 10° |
| 2026-04-26 14:07 | 46.30367 | 10.87801 | 40204 ft | 494 kts | 10° |
| 2026-04-26 14:07 | 46.37035 | 10.89951 | 40208 ft | 494 kts | 10° |
| 2026-04-26 14:08 | 46.43746 | 10.92121 | 40112 ft | 494 kts | 10° |
| 2026-04-26 14:08 | 46.50454 | 10.94292 | 40116 ft | 494 kts | 10° |
| 2026-04-26 14:09 | 46.57171 | 10.96472 | 40117 ft | 494 kts | 10° |
| 2026-04-26 14:09 | 46.63887 | 10.98658 | 40123 ft | 494 kts | 10° |
| 2026-04-26 14:10 | 46.70550 | 11.00830 | 40127 ft | 493 kts | 10° |
| 2026-04-26 14:10 | 46.77284 | 11.02857 | 40119 ft | 491 kts | 4° |
| 2026-04-26 14:11 | 46.87406 | 11.02283 | 40137 ft | 486 kts | 351° |
| 2026-04-26 14:11 | 46.94139 | 11.01274 | 40154 ft | 488 kts | 356° |
| 2026-04-26 14:12 | 47.00941 | 11.01833 | 40154 ft | 490 kts | 2° |
| 2026-04-26 14:12 | 47.07730 | 11.02806 | 40163 ft | 491 kts | 3° |
| 2026-04-26 14:13 | 47.17880 | 11.04396 | 40156 ft | 491 kts | 3° |
| 2026-04-26 14:14 | 47.24664 | 11.05446 | 40156 ft | 491 kts | 3° |
| 2026-04-26 14:14 | 47.31462 | 11.06486 | 40154 ft | 491 kts | 3° |
| 2026-04-26 14:15 | 47.37111 | 11.07352 | 40154 ft | 491 kts | 3° |
| 2026-04-26 14:15 | 47.43909 | 11.08398 | 40161 ft | 491 kts | 3° |
| 2026-04-26 14:16 | 47.50712 | 11.09443 | 40161 ft | 491 kts | 3° |
| 2026-04-26 14:16 | 47.57390 | 11.11665 | 40171 ft | 496 kts | 18° |
| 2026-04-26 14:17 | 47.63578 | 11.16272 | 40178 ft | 500 kts | 27° |
| 2026-04-26 14:17 | 47.69561 | 11.21427 | 40183 ft | 501 kts | 28° |
| 2026-04-26 14:18 | 47.75754 | 11.26116 | 40188 ft | 497 kts | 20° |
| 2026-04-26 14:18 | 47.82164 | 11.29860 | 40195 ft | 496 kts | 18° |
| 2026-04-26 14:19 | 47.88718 | 11.32986 | 40213 ft | 493 kts | 8° |
| 2026-04-26 14:19 | 47.95503 | 11.34073 | 40208 ft | 489 kts | 1° |
| 2026-04-26 14:20 | 48.02312 | 11.34683 | 40209 ft | 489 kts | 0° |
| 2026-04-26 14:20 | 48.09091 | 11.34485 | 40219 ft | 485 kts | 351° |
| 2026-04-26 14:21 | 48.15770 | 11.33307 | 40212 ft | 485 kts | 350° |
| 2026-04-26 14:21 | 48.22474 | 11.31986 | 40213 ft | 485 kts | 349° |
| 2026-04-26 14:22 | 48.29126 | 11.30686 | 40211 ft | 485 kts | 351° |
| 2026-04-26 14:22 | 48.35859 | 11.29611 | 40214 ft | 485 kts | 352° |
| 2026-04-26 14:23 | 48.42596 | 11.28602 | 40214 ft | 485 kts | 351° |
| 2026-04-26 14:23 | 48.49281 | 11.27570 | 40212 ft | 485 kts | 351° |
| 2026-04-26 14:24 | 48.56008 | 11.26506 | 40218 ft | 485 kts | 351° |
| 2026-04-26 14:24 | 48.62732 | 11.25432 | 40211 ft | 485 kts | 351° |
| 2026-04-26 14:25 | 48.69397 | 11.24371 | 40207 ft | 484 kts | 351° |
| 2026-04-26 14:25 | 48.76109 | 11.23290 | 40227 ft | 484 kts | 351° |
| 2026-04-26 14:26 | 48.82825 | 11.22218 | 40211 ft | 484 kts | 352° |
| 2026-04-26 14:26 | 48.89551 | 11.21966 | 40219 ft | 486 kts | 357° |
| 2026-04-26 14:27 | 48.96335 | 11.21972 | 40217 ft | 486 kts | 357° |
| 2026-04-26 14:27 | 49.03106 | 11.22025 | 40223 ft | 486 kts | 357° |
| 2026-04-26 14:28 | 49.09838 | 11.22076 | 40227 ft | 486 kts | 357° |
| 2026-04-26 14:28 | 49.16609 | 11.22117 | 40231 ft | 486 kts | 357° |
| 2026-04-26 14:29 | 49.23377 | 11.22159 | 40238 ft | 486 kts | 357° |
| 2026-04-26 14:29 | 49.30121 | 11.22215 | 40240 ft | 486 kts | 357° |
| 2026-04-26 14:30 | 49.36896 | 11.22269 | 40242 ft | 486 kts | 357° |
| 2026-04-26 14:30 | 49.43664 | 11.22324 | 40244 ft | 486 kts | 357° |
| 2026-04-26 14:31 | 49.50439 | 11.22379 | 40239 ft | 486 kts | 357° |
| 2026-04-26 14:31 | 49.57163 | 11.22436 | 40240 ft | 486 kts | 357° |
| 2026-04-26 14:32 | 49.63913 | 11.22457 | 40245 ft | 485 kts | 357° |
| 2026-04-26 14:32 | 49.70675 | 11.22457 | 40244 ft | 486 kts | 357° |
| 2026-04-26 14:33 | 49.77446 | 11.22463 | 40255 ft | 486 kts | 357° |
| 2026-04-26 14:33 | 49.84225 | 11.22497 | 40259 ft | 486 kts | 357° |
| 2026-04-26 14:34 | 49.90990 | 11.22539 | 40258 ft | 486 kts | 357° |
| 2026-04-26 14:34 | 49.97723 | 11.22581 | 40254 ft | 486 kts | 357° |
| 2026-04-26 14:35 | 50.04512 | 11.22621 | 40265 ft | 486 kts | 357° |
| 2026-04-26 14:35 | 50.11276 | 11.22667 | 40269 ft | 486 kts | 357° |
| 2026-04-26 14:36 | 50.18046 | 11.22707 | 40263 ft | 486 kts | 357° |
| 2026-04-26 14:36 | 50.24819 | 11.22743 | 40270 ft | 486 kts | 357° |
| 2026-04-26 14:37 | 50.31583 | 11.22781 | 40267 ft | 486 kts | 357° |
| 2026-04-26 14:37 | 50.38332 | 11.22422 | 40276 ft | 484 kts | 352° |
| 2026-04-26 14:38 | 50.44993 | 11.21497 | 40279 ft | 483 kts | 352° |
| 2026-04-26 14:38 | 50.51698 | 11.20475 | 40276 ft | 483 kts | 351° |
| 2026-04-26 14:39 | 50.58395 | 11.19445 | 40273 ft | 483 kts | 352° |
| 2026-04-26 14:39 | 50.65086 | 11.18422 | 40288 ft | 483 kts | 352° |
| 2026-04-26 14:40 | 50.71802 | 11.17399 | 40284 ft | 483 kts | 352° |
| 2026-04-26 14:40 | 50.78500 | 11.16376 | 40292 ft | 483 kts | 352° |
| 2026-04-26 14:41 | 50.85154 | 11.15356 | 40296 ft | 483 kts | 352° |
| 2026-04-26 14:41 | 50.91861 | 11.14326 | 40298 ft | 483 kts | 352° |
| 2026-04-26 14:42 | 50.98558 | 11.13293 | 40290 ft | 483 kts | 351° |
| 2026-04-26 14:42 | 51.05258 | 11.12256 | 40297 ft | 483 kts | 351° |
| 2026-04-26 14:43 | 51.11940 | 11.11507 | 40291 ft | 486 kts | 358° |
| 2026-04-26 14:43 | 51.18684 | 11.12840 | 40290 ft | 490 kts | 7° |
| 2026-04-26 14:44 | 51.25404 | 11.14862 | 40292 ft | 491 kts | 8° |
| 2026-04-26 14:44 | 51.32106 | 11.17004 | 40293 ft | 491 kts | 8° |
| 2026-04-26 14:45 | 51.38814 | 11.19139 | 40292 ft | 491 kts | 8° |
| 2026-04-26 14:45 | 51.45475 | 11.21235 | 40292 ft | 491 kts | 8° |
| 2026-04-26 14:46 | 51.52194 | 11.23349 | 40302 ft | 491 kts | 8° |
| 2026-04-26 14:46 | 51.58866 | 11.25455 | 40304 ft | 490 kts | 8° |
| 2026-04-26 14:47 | 51.65578 | 11.27453 | 40308 ft | 489 kts | 5° |
| 2026-04-26 14:47 | 51.72334 | 11.28708 | 40314 ft | 488 kts | 2° |
| 2026-04-26 14:48 | 51.79082 | 11.29829 | 40317 ft | 487 kts | 2° |
| 2026-04-26 14:48 | 51.85818 | 11.31059 | 40320 ft | 486 kts | 3° |
| 2026-04-26 14:49 | 51.92497 | 11.32353 | 40320 ft | 486 kts | 3° |
| 2026-04-26 14:49 | 51.99216 | 11.33676 | 40324 ft | 486 kts | 3° |
| 2026-04-26 14:50 | 52.05937 | 11.35002 | 40298 ft | 485 kts | 3° |
| 2026-04-26 14:50 | 52.12635 | 11.36320 | 40297 ft | 485 kts | 3° |
| 2026-04-26 14:51 | 52.19311 | 11.37636 | 40296 ft | 485 kts | 4° |
| 2026-04-26 14:51 | 52.26027 | 11.38966 | 40299 ft | 485 kts | 3° |
| 2026-04-26 14:52 | 52.32729 | 11.40297 | 40300 ft | 485 kts | 3° |
| 2026-04-26 14:52 | 52.39430 | 11.41630 | 40300 ft | 485 kts | 3° |
| 2026-04-26 14:53 | 52.46131 | 11.42967 | 40308 ft | 485 kts | 3° |
| 2026-04-26 14:53 | 52.52776 | 11.44307 | 40302 ft | 484 kts | 3° |
| 2026-04-26 14:54 | 52.59459 | 11.45656 | 40298 ft | 484 kts | 3° |
| 2026-04-26 14:54 | 52.66159 | 11.47010 | 40298 ft | 484 kts | 3° |
| 2026-04-26 14:55 | 52.72852 | 11.48367 | 40301 ft | 483 kts | 3° |
| 2026-04-26 14:55 | 52.79499 | 11.49717 | 40300 ft | 483 kts | 3° |
| 2026-04-26 14:56 | 52.86184 | 11.51079 | 40296 ft | 483 kts | 3° |
| 2026-04-26 14:56 | 52.92859 | 11.52443 | 40298 ft | 483 kts | 3° |
| 2026-04-26 14:57 | 52.99534 | 11.53819 | 40297 ft | 483 kts | 3° |
| 2026-04-26 14:57 | 53.06171 | 11.55185 | 40301 ft | 483 kts | 3° |
| 2026-04-26 14:58 | 53.12848 | 11.56560 | 40301 ft | 483 kts | 3° |
| 2026-04-26 14:58 | 53.19513 | 11.57940 | 40306 ft | 483 kts | 3° |
| 2026-04-26 14:59 | 53.26151 | 11.59766 | 40305 ft | 486 kts | 11° |
| 2026-04-26 14:59 | 53.32669 | 11.62787 | 40227 ft | 483 kts | 12° |
| 2026-04-26 15:00 | 53.39057 | 11.65968 | 39760 ft | 476 kts | 12° |
| 2026-04-26 15:00 | 53.42186 | 11.67541 | 39537 ft | 476 kts | 12° |
| 2026-04-26 15:00 | 53.45363 | 11.69136 | 39321 ft | 476 kts | 12° |
| 2026-04-26 15:00 | 53.48541 | 11.70733 | 39094 ft | 476 kts | 12° |
| 2026-04-26 15:01 | 53.51715 | 11.72328 | 38843 ft | 476 kts | 12° |
| 2026-04-26 15:01 | 53.54888 | 11.73923 | 38557 ft | 476 kts | 12° |
| 2026-04-26 15:01 | 53.58032 | 11.75503 | 38278 ft | 477 kts | 12° |
| 2026-04-26 15:01 | 53.60188 | 11.76587 | 38100 ft | 477 kts | 12° |
| 2026-04-26 15:02 | 53.63339 | 11.78172 | 37817 ft | 478 kts | 12° |
| 2026-04-26 15:02 | 53.66530 | 11.79781 | 37567 ft | 479 kts | 12° |
| 2026-04-26 15:02 | 53.69720 | 11.81392 | 37299 ft | 478 kts | 12° |
| 2026-04-26 15:02 | 53.72912 | 11.83008 | 37028 ft | 479 kts | 12° |
| 2026-04-26 15:03 | 53.76107 | 11.84623 | 36766 ft | 479 kts | 11° |
| 2026-04-26 15:03 | 53.79304 | 11.86242 | 36516 ft | 480 kts | 12° |
| 2026-04-26 15:03 | 53.82511 | 11.87874 | 36264 ft | 481 kts | 12° |
| 2026-04-26 15:03 | 53.85717 | 11.89508 | 36008 ft | 481 kts | 12° |
| 2026-04-26 15:04 | 53.88926 | 11.91147 | 35760 ft | 482 kts | 12° |
| 2026-04-26 15:04 | 53.92138 | 11.92790 | 35532 ft | 482 kts | 11° |
| 2026-04-26 15:04 | 53.95347 | 11.94434 | 35284 ft | 482 kts | 11° |
| 2026-04-26 15:04 | 53.98517 | 11.96059 | 35048 ft | 482 kts | 11° |
| 2026-04-26 15:05 | 54.01735 | 11.97712 | 34805 ft | 482 kts | 11° |
| 2026-04-26 15:05 | 54.03867 | 11.98807 | 34647 ft | 483 kts | 11° |
| 2026-04-26 15:05 | 54.08169 | 12.01022 | 34018 ft | 481 kts | 11° |
| 2026-04-26 15:05 | 54.11380 | 12.02679 | 33165 ft | 482 kts | 11° |
| 2026-04-26 15:06 | 54.14595 | 12.04339 | 32309 ft | 483 kts | 11° |
| 2026-04-26 15:06 | 54.17821 | 12.06007 | 31424 ft | 485 kts | 11° |
| 2026-04-26 15:06 | 54.21019 | 12.07662 | 30540 ft | 486 kts | 11° |
| 2026-04-26 15:06 | 54.24266 | 12.09340 | 29493 ft | 488 kts | 11° |
| 2026-04-26 15:07 | 54.30702 | 12.12697 | 28097 ft | 477 kts | 12° |
| 2026-04-26 15:07 | 54.33859 | 12.14353 | 27460 ft | 472 kts | 12° |
| 2026-04-26 15:07 | 54.36984 | 12.15991 | 26799 ft | 467 kts | 12° |
| 2026-04-26 15:08 | 54.40077 | 12.17613 | 26162 ft | 463 kts | 12° |
| 2026-04-26 15:08 | 54.43136 | 12.19217 | 25506 ft | 459 kts | 12° |
| 2026-04-26 15:08 | 54.46182 | 12.20816 | 24853 ft | 455 kts | 12° |
| 2026-04-26 15:08 | 54.49196 | 12.22400 | 24219 ft | 451 kts | 12° |
| 2026-04-26 15:09 | 54.52190 | 12.23975 | 23527 ft | 447 kts | 12° |
| 2026-04-26 15:09 | 54.55148 | 12.25536 | 22860 ft | 442 kts | 12° |
| 2026-04-26 15:09 | 54.58038 | 12.27063 | 22241 ft | 436 kts | 12° |
| 2026-04-26 15:09 | 54.60961 | 12.28210 | 21612 ft | 425 kts | 2° |
| 2026-04-26 15:10 | 54.63877 | 12.28682 | 21005 ft | 418 kts | 359° |
| 2026-04-26 15:10 | 54.65829 | 12.28895 | 20585 ft | 414 kts | 359° |
| 2026-04-26 15:10 | 54.69614 | 12.29252 | 19776 ft | 409 kts | 358° |
| 2026-04-26 15:10 | 54.72456 | 12.29503 | 19155 ft | 405 kts | 358° |
| 2026-04-26 15:11 | 54.75260 | 12.29743 | 18521 ft | 402 kts | 358° |
| 2026-04-26 15:11 | 54.78043 | 12.29978 | 17851 ft | 397 kts | 358° |
| 2026-04-26 15:11 | 54.80765 | 12.30207 | 17232 ft | 393 kts | 358° |
| 2026-04-26 15:11 | 54.83483 | 12.30434 | 16602 ft | 389 kts | 359° |
| 2026-04-26 15:12 | 54.86183 | 12.30660 | 15976 ft | 385 kts | 359° |
| 2026-04-26 15:12 | 54.88846 | 12.30883 | 15369 ft | 382 kts | 359° |
| 2026-04-26 15:12 | 54.91493 | 12.31112 | 14762 ft | 380 kts | 359° |
| 2026-04-26 15:12 | 54.94104 | 12.31801 | 14118 ft | 382 kts | 11° |
| 2026-04-26 15:13 | 54.96542 | 12.33678 | 13431 ft | 386 kts | 26° |
| 2026-04-26 15:13 | 54.98788 | 12.36215 | 12784 ft | 383 kts | 30° |
| 2026-04-26 15:13 | 55.00976 | 12.38811 | 12166 ft | 378 kts | 30° |
| 2026-04-26 15:13 | 55.03118 | 12.41336 | 11563 ft | 374 kts | 30° |
| 2026-04-26 15:14 | 55.05257 | 12.43850 | 11150 ft | 363 kts | 30° |
| 2026-04-26 15:14 | 55.07299 | 12.46254 | 11013 ft | 345 kts | 29° |
| 2026-04-26 15:14 | 55.09244 | 12.48541 | 10883 ft | 328 kts | 29° |
| 2026-04-26 15:14 | 55.11094 | 12.50716 | 10758 ft | 312 kts | 29° |
| 2026-04-26 15:15 | 55.12855 | 12.52784 | 10629 ft | 298 kts | 29° |
| 2026-04-26 15:15 | 55.14537 | 12.54761 | 10531 ft | 284 kts | 28° |
| 2026-04-26 15:15 | 55.16122 | 12.56625 | 10390 ft | 272 kts | 28° |
| 2026-04-26 15:15 | 55.17667 | 12.58441 | 10272 ft | 263 kts | 28° |
| 2026-04-26 15:16 | 55.19211 | 12.60248 | 10122 ft | 272 kts | 28° |
| 2026-04-26 15:16 | 55.20791 | 12.62098 | 9864 ft | 274 kts | 28° |
| 2026-04-26 15:16 | 55.22376 | 12.63964 | 9454 ft | 273 kts | 29° |
| 2026-04-26 15:16 | 55.23991 | 12.65697 | 9102 ft | 271 kts | 25° |
| 2026-04-26 15:17 | 55.25637 | 12.67302 | 8820 ft | 271 kts | 24° |
| 2026-04-26 15:17 | 55.26731 | 12.68355 | 8631 ft | 270 kts | 24° |
| 2026-04-26 15:17 | 55.28933 | 12.70476 | 8220 ft | 270 kts | 24° |
| 2026-04-26 15:17 | 55.30583 | 12.72068 | 7918 ft | 270 kts | 25° |
| 2026-04-26 15:18 | 55.32234 | 12.73622 | 7618 ft | 268 kts | 21° |
| 2026-04-26 15:18 | 55.33966 | 12.74505 | 7329 ft | 262 kts | 1° |
| 2026-04-26 15:18 | 55.35749 | 12.74113 | 7026 ft | 256 kts | 338° |
| 2026-04-26 15:18 | 55.37242 | 12.72504 | 6743 ft | 253 kts | 315° |
| 2026-04-26 15:19 | 55.38402 | 12.70194 | 6480 ft | 249 kts | 307° |
| 2026-04-26 15:19 | 55.39449 | 12.67837 | 6293 ft | 239 kts | 307° |
| 2026-04-26 15:19 | 55.40436 | 12.65606 | 6147 ft | 229 kts | 307° |
| 2026-04-26 15:19 | 55.41388 | 12.63435 | 5965 ft | 219 kts | 305° |
| 2026-04-26 15:20 | 55.42091 | 12.61131 | 5797 ft | 210 kts | 289° |
| 2026-04-26 15:20 | 55.42310 | 12.58655 | 5636 ft | 202 kts | 269° |
| 2026-04-26 15:20 | 55.42033 | 12.56280 | 5461 ft | 195 kts | 251° |
| 2026-04-26 15:20 | 55.41344 | 12.54291 | 5211 ft | 187 kts | 232° |
| 2026-04-26 15:21 | 55.40458 | 12.52728 | 4991 ft | 175 kts | 229° |
| 2026-04-26 15:21 | 55.39707 | 12.51085 | 4607 ft | 168 kts | 243° |
| 2026-04-26 15:21 | 55.39285 | 12.49235 | 4247 ft | 161 kts | 259° |
| 2026-04-26 15:21 | 55.39217 | 12.47300 | 3996 ft | 158 kts | 276° |
| 2026-04-26 15:22 | 55.39482 | 12.45428 | 3975 ft | 158 kts | 292° |
| 2026-04-26 15:22 | 55.40041 | 12.43792 | 3963 ft | 154 kts | 308° |
| 2026-04-26 15:22 | 55.40861 | 12.42492 | 3986 ft | 170 kts | 323° |
| 2026-04-26 15:22 | 55.41961 | 12.41617 | 3977 ft | 178 kts | 342° |
| 2026-04-26 15:23 | 55.43208 | 12.41436 | 3974 ft | 183 kts | 1° |
| 2026-04-26 15:23 | 55.44478 | 12.41661 | 3975 ft | 183 kts | 1° |
| 2026-04-26 15:23 | 55.45753 | 12.41752 | 3973 ft | 184 kts | 1° |
| 2026-04-26 15:23 | 55.47026 | 12.42146 | 3962 ft | 188 kts | 15° |
| 2026-04-26 15:24 | 55.48156 | 12.43336 | 3838 ft | 191 kts | 35° |
| 2026-04-26 15:24 | 55.49139 | 12.44869 | 3611 ft | 186 kts | 39° |
| 2026-04-26 15:24 | 55.50087 | 12.46353 | 3228 ft | 186 kts | 36° |
| 2026-04-26 15:24 | 55.51115 | 12.47829 | 2564 ft | 196 kts | 35° |
| 2026-04-26 15:25 | 55.52197 | 12.49394 | 1845 ft | 206 kts | 37° |
| 2026-04-26 15:25 | 55.52908 | 12.50465 | 1615 ft | 198 kts | 38° |
| 2026-04-26 15:25 | 55.54179 | 12.52597 | 1207 ft | 176 kts | 39° |
| 2026-04-26 15:25 | 55.55058 | 12.53994 | 990 ft | 164 kts | 37° |
| 2026-04-26 15:26 | 55.55878 | 12.55280 | 762 ft | 155 kts | 39° |
| 2026-04-26 15:26 | 55.56661 | 12.56510 | 612 ft | 145 kts | 37° |
| 2026-04-26 15:26 | 55.57412 | 12.57617 | 438 ft | 137 kts | 36° |
| 2026-04-26 15:26 | 55.58152 | 12.58710 | 299 ft | 141 kts | 34° |
| 2026-04-26 15:27 | 55.58890 | 12.59849 | 145 ft | 142 kts | 38° |
| 2026-04-26 15:27 | 55.59634 | 12.60999 | 27 ft | 138 kts | 38° |
| 2026-04-26 15:27 | 55.60274 | 12.61977 | 28 ft | 106 kts | 40° |
| 2026-04-26 15:27 | 55.60634 | 12.62543 | 32 ft | 53 kts | 41° |
| 2026-04-26 15:28 | 55.60848 | 12.62803 | 29 ft | 24 kts | 19° |
| 2026-04-26 15:28 | 55.61004 | 12.62878 | 26 ft | 13 kts | 9° |
| 2026-04-26 15:28 | 55.61095 | 12.62915 | 26 ft | 14 kts | 20° |
| 2026-04-26 15:28 | 55.61173 | 12.63002 | 27 ft | 13 kts | 42° |
| 2026-04-26 15:29 | 55.61247 | 12.63112 | 28 ft | 15 kts | 39° |
| 2026-04-26 15:29 | 55.61322 | 12.63225 | 27 ft | 7 kts | 41° |
| 2026-04-26 15:29 | 55.61431 | 12.63394 | 28 ft | 12 kts | 41° |
| 2026-04-26 15:30 | 55.61595 | 12.63646 | 27 ft | 19 kts | 41° |
| 2026-04-26 15:30 | 55.61700 | 12.63809 | 28 ft | 18 kts | 41° |
| 2026-04-26 15:30 | 55.61783 | 12.63936 | 29 ft | 17 kts | 41° |
| 2026-04-26 15:31 | 55.61885 | 12.64078 | 26 ft | 20 kts | 29° |
| 2026-04-26 15:31 | 55.62134 | 12.64291 | 27 ft | 20 kts | 25° |
| 2026-04-26 15:31 | 55.62267 | 12.64391 | 25 ft | 19 kts | 17° |
| 2026-04-26 15:32 | 55.62452 | 12.64487 | 28 ft | 3 kts | 31° |
| 2026-04-26 15:32 | 55.62455 | 12.64491 | 28 ft | 2 kts | 31° |
| 2026-04-26 15:32 | 55.62470 | 12.64515 | 28 ft | 4 kts | 47° |
| 2026-04-26 15:33 | 55.62504 | 12.64570 | 28 ft | 8 kts | 31° |
| 2026-04-26 15:33 | 55.62563 | 12.64570 | 27 ft | 8 kts | 348° |
| 2026-04-26 15:33 | 55.62565 | 12.64570 | 27 ft | 0 kts | 348° |